Blue Bucket Stampede - Trap Training & Settling Inventory

Station: Loft Inventory - T Race

Distance: 0.1 Miles    

Release: 24-Mar-2020 07:15

Weather Release:    Arrival:

Wind at Release:     Wind at Arrival:

Temp at Release: °    Temp at Arrival: °

Lofts: 131

Birds: 418

Clocked: 413

Good Luck to Everyone!
Drops Pos Breeder Pigeon Name Color Sex Ent Arrival Speed To Win Elg PdOp1Op2
1 98 M J - PA 0019-AU20-JIAN BBW H 1 09:36:48.54 1.241 00:00:00 Yes
2 Rodriguez Loft - TX 5445-AU20-JEDD BUC-MON BB C 1 09:38:09.77 1.229 00:01:23 Yes
3 Ken Family Loft - FL 0515-AU20-XKL BBW H 1 09:38:38.19 1.225 00:01:51 Yes
3 The Delta Renegades - TN 3503-AU20-MCF BB H 1 09:38:38.66 1.225 00:01:51 Yes
3 Dave Harrett - WA 7202-AU20-JEDD BB C 1 09:38:39.44 1.225 00:01:51 Yes
3 A-Lo-Loft - NY 0007-AU20-ALOL ☯️☯️☯️ SBB H 1 09:38:43.51 1.225 00:01:51 Yes
7 Shawnie & Peach - GA 72532-IF20-E BBTW H 1 09:38:45.35 1.224 00:01:58 Yes
7 Scrub Family Loft - MN 0065-AU20-SCRB DC H 1 09:38:46.70 1.224 00:01:58 Yes
7 House Of Paine - CA 0208-AU20-HOP 797x1120 LBC H 1 09:38:47.34 1.224 00:01:58 Yes
7 ** Team Pinoy ** - CA 4703-AU20-JEDD LBC H 1 09:38:49.12 1.224 00:01:58 Yes
11 C.D. Dovecote - MN 0008-AU20-DOVE 952 X 3738 BB C 1 09:38:52.15 1.223 00:02:05 Yes
11 Van Den Bossche Brothers - ME 0001-IF20-VDB Cracker LBC C 1 09:38:53.29 1.223 00:02:05 Yes
11 Scrub Family Loft - MN 0051-AU20-SCRB BB H 2 09:38:55.98 1.223 00:02:05 Yes
14 AFL - GA 0109-IF20-AFL 313 AFL x 340 AFL BB H 1 09:38:58.06 1.222 00:02:12 Yes
14 Nemelka Racing Pigeon Loft - UT 0008-AU20-NRPL Debacker x Splendiferous BB C 1 09:39:02.83 1.222 00:02:12 Yes
16 Scrub Family Loft - MN 0014-AU20-SCRB The Legend BC H 3 09:39:06.07 1.221 00:02:19 Died
16 J S R Loft - UT 13301-AU20-AA DC H 1 09:39:06.84 1.221 00:02:19 Yes
16 Thunder Birds/Rodriguez Breeding Loft - TX 27774-AU20-APRU Believe It! BB C 1 09:39:08.28 1.221 00:02:19 Yes
16 A P C Loft - TX 20032-AU20-APCL SBB H 1 09:39:09.33 1.221 00:02:19 Yes
16 A-Lo-Loft - NY 0009-AU20-ALOL ☯️☯️☯️ BB C 3 09:39:10.03 1.221 00:02:19 Yes
16 Da-Dong - WI 2806-AU20-RAC BBT H 1 09:39:10.16 1.221 00:02:19 Yes
16 Bond Loft - CA 3503-AU20-SRP Kaipo BBTW H 1 09:39:11.41 1.221 00:02:19 Yes
16 A-Lo-Loft - NY 0013-AU20-ALOL ☯️☯️☯️ BBW C 2 09:39:11.65 1.221 00:02:19 Yes
24 Roger Teeters - WA 5503-AU20-LKC BB C 1 09:39:16.73 1.220 00:02:26 Yes
24 Wtj Loft - TX 0165-AU20-WTJ BB C 1 09:39:19.17 1.220 00:02:26 Yes
26 Irishsyndicatelofts - AZ 1016-AU20-IRSH BC H 1 09:39:19.54 1.219 00:02:34 Yes
26 Zong Jing Tang - FL 34455-AU20-ARPU BBPW H 1 09:39:21.68 1.219 00:02:34 Yes
26 Alaniz Loft 🇲🇽 - IL 0091-AU20-ALNZ BBW H 1 09:39:22.22 1.219 00:02:34 Yes
26 A P C Loft - TX 20013-AU20-APCL BB H 2 09:39:22.44 1.219 00:02:34 Yes
30 Cherokee Loft - MI 0613-AU20-CHER 524 Trouble X 1221 Kolv BB H 1 09:39:26.47 1.218 00:02:41 Yes
30 J S R Loft - UT 13302-AU20-AA DC C 2 09:39:31.81 1.218 00:02:41 Yes
32 Genesis Syndicate Loft - AZ 0510-AU20-GENE BBP C 1 09:40:03.03 1.213 00:03:16 Yes
33 Emerson/Donnelly - SC 0312-AU20-MERL SLT H 1 09:40:17.31 1.211 00:03:31 Yes
34 Bud & Barry - MI 0725-AU20-NSL DC C 1 09:40:24.64 1.210 00:03:38 Yes
35 Genesis Syndicate Loft - AZ 0511-AU20-GENE BB C 2 09:40:38.58 1.208 00:03:52 Yes
36 Cherokee Loft - MI 0609-AU20-CHER Nanez X 3341 Iron Clad BBP H 2 09:40:46.30 1.207 00:04:00 Yes
36 Arandas Loft - TX 7692-AU20-JEDD DC H 1 09:40:49.46 1.207 00:04:00 Yes
36 Scrub Family Loft - MN 0054-AU20-SCRB BBPW H 4 09:40:51.46 1.207 00:04:00 Yes
39 Scrub Family Loft - MN 0053-AU20-SCRB DC C 5 09:41:02.39 1.205 00:04:14 Yes
39 Devore Loft - GA 9918-AU20-DEVO 218 x 237 BB H 1 09:41:02.87 1.205 00:04:14 Yes
39 Scrub Family Loft - MN 0099-AU20-SCRB DC C 6 09:41:06.08 1.205 00:04:14 Yes
39 R & D Racing 2 - ON 4403-AU20-AA SBBP H 1 09:41:06.73 1.205 00:04:14 Yes
43 Cherokee Loft - MI 0611-AU20-CHER 7777 Ludo X 2094 Nanez BBT H 3 09:41:10.31 1.204 00:04:21 Yes
43 Jimmy Zheng Loft - MS 0185-AU20-JIMY BBPW H 1 09:41:12.92 1.204 00:04:21 Yes
43 Arandas Loft - TX 7688-AU20-JEDD LBC H 2 09:41:12.97 1.204 00:04:21 Yes
46 Life Loft - WA 1400-AU20-CBF BCW C 1 09:41:14.73 1.203 00:04:29 Yes
47 Carlitos El Animal & Dammay Matanza - FL 0032-AU20-ANIM Ave - Ave DC C 1 09:41:22.14 1.202 00:04:36 Yes
47 Tyler Loft - TX 6200-AU20-ARPU BBPN C 1 09:41:28.51 1.202 00:04:36 Yes
49 Steven Loft - TX 0153-AU20-CCL BB H 1 09:41:32.11 1.201 00:04:43 Yes
49 Lising Syndicate - CA 38204-AU20-ARPU Fast Eddie x Frill SIL H 1 09:41:32.97 1.201 00:04:43 Yes
49 Nemelka Racing Pigeon Loft - UT 0001-AU20-NRPL Florian x Debacker Hen BBT H 2 09:41:33.17 1.201 00:04:43 Yes
52 Nemelka Racing Pigeon Loft - UT 0006-AU20-NRPL deBelsar '14 x Turbulence BB C 3 09:41:38.82 1.200 00:04:51 Yes
53 Elton Dinga - TX 11017-AU20-AA Br 1 Champion TX Shootout BB H 1 09:41:49.82 1.199 00:04:58 Yes
53 Flyhome Loft - KY 2002-AU20-FLYH BC H 1 09:41:50.09 1.199 00:04:58 Yes
55 Dave Harrett - WA 7204-AU20-JEDD BBT H 2 09:41:52.71 1.198 00:05:05 Yes
55 Emerson/Donnelly - SC 0310-AU20-MERL BB H 2 09:41:56.41 1.198 00:05:05 Yes
57 Vegga - TX 0068-AU20-VEGA 🔺1081x15017🔺 BBPW H 1 09:42:05.42 1.197 00:05:13 Yes
58 Shi Loft - PA 1714-IF20-ERIE BBTW H 1 09:42:12.35 1.196 00:05:20 Yes
58 AFL - GA 0119-IF20-AFL 313 AFL x 340 AFL BBTW H 2 09:42:12.95 1.196 00:05:20 Yes
58 Rachel Olivieri - CA 20523-AU20-LAKE 23 x 003 BB C 1 09:42:13.00 1.196 00:05:20 Yes
61 Sierra Ranch - CA 0212-AU20-SR BBT H 1 09:42:15.16 1.195 00:05:28 Yes
62 Yendez Loft - TX 0559-AU20-YEND YENDEZ 559 SBB H 1 09:42:20.56 1.194 00:05:35 Yes
62 Emerson/Donnelly - SC 0302-AU20-MERL BCT H 3 09:42:27.76 1.194 00:05:35 Yes
64 Alaniz Loft 🇲🇽 - IL 0094-AU20-ALNZ BB H 2 09:42:31.86 1.193 00:05:42 Yes
65 Scrub Family Loft - MN 0052-AU20-SCRB DC H 7 09:42:35.35 1.192 00:05:50 Yes
65 Racing Pigeon Mall - WA 1004-AU20-RPM BLK C 1 09:42:38.74 1.192 00:05:50 Yes
65 Shawnie & Peach - GA 72526-IF20-E BBPW H 2 09:42:39.45 1.192 00:05:50 Yes
65 98 M J - PA 0001-AU20-JIAN BCW H 2 09:42:40.05 1.192 00:05:50 Yes
69 Wtj Loft - TX 0153-AU20-WTJ LBC H 2 09:42:44.23 1.191 00:05:57 Yes
69 Greek Connection - SC 0213-AU20-GREK BB C 1 09:42:46.43 1.191 00:05:57 Yes
69 Clausing - FL 0195-IF20-CLAU BBPW C 1 09:42:47.49 1.191 00:05:57 Yes
69 Rachel Olivieri - CA 20529-AU20-LAKE 18 X Gm BB C 2 09:42:47.79 1.191 00:05:57 Yes
69 Chen & Liu Family - CT 0041-IF20-LIU SILW C 1 09:42:47.92 1.191 00:05:57 Yes
74 Da-Dong - WI 2822-AU20-RAC BBPW C 2 09:42:52.32 1.190 00:06:05 Yes
74 Van Den Bossche Brothers - ME 0011-IF20-VDB Longmire BB H 2 09:42:53.05 1.190 00:06:05 Yes
74 Clausing - FL 0106-IF20-CLAU BB H 2 09:42:55.04 1.190 00:06:05 Yes
74 ** Team Pinoy ** - CA 4721-AU20-JEDD BB H 2 09:42:56.51 1.190 00:06:05 Yes
74 Kolvenbag & Son - PA 1417-IF20-KOLV BCW C 1 09:42:56.64 1.190 00:06:05 Yes
79 Chen & Liu Family - CT 0005-IF20-LIU BB H 2 09:42:58.68 1.189 00:06:12 Yes
79 Emerson/Donnelly - SC 0314-AU20-MERL BC C 4 09:43:01.12 1.189 00:06:12 Yes
79 Michigan Race Team - MI 1210-AU20-SMCC BBP H 1 09:43:01.34 1.189 00:06:12 Yes
79 Shi Loft - PA 1711-IF20-ERIE BB C 2 09:43:02.41 1.189 00:06:12 Yes
79 Vegga - TX 0085-AU20-VEGA 🔺6056492x21868🔺 BC H 2 09:43:02.63 1.189 00:06:12 Yes
84 Emerson/Donnelly - SC 0316-AU20-MERL DC H 5 09:43:05.33 1.188 00:06:20 Yes
84 98 M J - PA 7763-AU20-FOYS LBC H 3 09:43:06.70 1.188 00:06:20 Yes
84 Highland Loft - OH 2122-AU20-DZ BB H 1 09:43:09.69 1.188 00:06:20 Yes
84 Danny Lum - HI 0402-IF20-FSC BB C 1 09:43:11.45 1.188 00:06:20 Yes
84 Bieche-Stevenson - CA 0204-AU20-BECH SIL H 1 09:43:11.48 1.188 00:06:20 Yes
89 Peters - GA 0059-AU20-PETE RED ROCKET RED C 1 09:43:13.72 1.187 00:06:27 Yes
89 Irishsyndicatelofts - AZ 1024-AU20-IRSH BC H 2 09:43:14.53 1.187 00:06:27 Yes
89 Rachel Olivieri - CA 20516-AU20-LAKE K1 BB C 3 09:43:14.95 1.187 00:06:27 Yes
89 Andy Owen - GA 0013-AU20-OWEN BB H 1 09:43:17.30 1.187 00:06:27 Yes
89 L S U - LA 0461-AU20-LSU MLY H 1 09:43:18.39 1.187 00:06:27 Yes
94 Emerson/Donnelly - SC 0306-AU20-MERL BB H 6 09:43:22.72 1.186 00:06:35 Yes
94 Aimhigh Loft - CA 9990-AU20-AA MR CHIMAV 2923 BB C 1 09:43:27.19 1.186 00:06:35 Yes
96 Piper Loft - WA 2123-AU20-FTV BBT C 1 09:43:31.65 1.185 00:06:42 Yes
96 Andy Owen - GA 0007-AU20-OWEN BB C 2 09:43:32.99 1.185 00:06:42 Yes
98 Whiskey Hollow Loft - TX 0019-AU20-WACO BB H 1 09:43:35.88 1.184 00:06:50 Yes
99 Brooklyn Loft - NY 0477-IF20-BQC BBPW C 1 09:43:47.43 1.183 00:06:57 Yes
99 Thunder Birds/Rodriguez Breeding Loft - TX 27766-AU20-ARPU Dead-Eye! BB H 2 09:43:47.60 1.183 00:06:57 Yes

There are 766 bird records

Note: These Race Results are unofficial and subject to change until verified by the Race Committee and declared final.



windy
Click for Forecast for 97754 from weatherUSA